createdAt,value
2023-03-29T02:16:53.870Z,3.93
2023-03-29T02:32:40.620Z,3.23
2023-03-29T03:37:29.785Z,4.62
2023-03-29T05:05:05.409Z,5.01
2023-03-29T05:22:02.737Z,5.05
2023-03-29T05:26:03.870Z,5.20
2023-03-29T05:30:03.707Z,5.18
2023-03-29T05:34:03.462Z,5.25
2023-03-29T05:38:03.885Z,5.37
2023-03-29T06:05:32.135Z,4.84
2023-03-29T06:09:32.222Z,5.12
2023-03-29T06:40:29.440Z,5.06
2023-03-29T06:44:30.036Z,5.52
2023-03-29T06:48:29.932Z,5.84
2023-03-29T06:52:29.745Z,6.10
2023-03-29T07:00:47.990Z,6.49
2023-03-29T07:04:49.024Z,6.45
2023-03-29T07:17:26.806Z,6.75
2023-03-29T07:28:39.342Z,6.50
2023-03-29T07:32:40.741Z,6.90
2023-03-29T07:36:40.547Z,7.07
2023-03-29T07:40:47.140Z,7.00
2023-03-29T07:44:40.821Z,7.07
2023-03-29T07:48:39.417Z,7.20
2023-03-29T07:52:39.825Z,7.54
2023-03-29T07:56:39.587Z,7.73
2023-03-29T08:00:39.131Z,7.87
2023-03-29T08:04:39.498Z,7.87
2023-03-29T08:08:39.798Z,7.92
2023-03-29T08:12:38.672Z,8.03
2023-03-29T08:16:38.712Z,7.94
2023-03-29T08:20:38.596Z,7.95
2023-03-29T08:29:01.529Z,7.91
2023-03-29T08:37:16.889Z,7.94
2023-03-29T08:41:19.502Z,8.09
2023-03-29T08:45:19.098Z,8.05
2023-03-29T08:49:32.190Z,8.32
2023-03-29T09:01:58.245Z,8.65
2023-03-29T09:05:58.931Z,8.41
2023-03-29T09:09:55.940Z,8.55
2023-03-29T09:13:56.068Z,8.69
2023-03-29T09:17:56.126Z,8.69
2023-03-29T09:21:56.114Z,8.56
2023-03-29T09:25:56.012Z,8.66
2023-03-29T09:29:55.609Z,8.67
2023-03-29T09:33:55.693Z,8.78
2023-03-29T10:41:39.563Z,8.72
2023-03-29T10:45:39.959Z,8.94
2023-03-29T10:49:40.222Z,9.14
2023-03-29T10:53:39.385Z,8.97
2023-03-29T11:12:27.096Z,9.05
2023-03-29T11:30:24.496Z,9.36
2023-03-29T11:38:45.194Z,10.05
2023-03-29T11:42:44.028Z,10.14
2023-03-29T12:17:02.344Z,10.31
2023-03-29T12:29:41.049Z,10.23
2023-03-29T12:33:39.964Z,10.44
2023-03-29T12:37:38.808Z,10.47
2023-03-29T12:41:38.785Z,10.34
2023-03-29T12:45:38.350Z,10.23
2023-03-29T12:49:38.662Z,10.39
2023-03-29T13:02:16.252Z,10.36
2023-03-29T13:06:22.412Z,10.46
2023-03-29T13:10:16.826Z,10.72
2023-03-29T13:14:17.130Z,10.73
2023-03-29T13:18:17.293Z,10.68
2023-03-29T13:22:16.918Z,10.72
